createdAt,value
2018-10-16T00:00:31.478Z,12.87
2018-10-16T00:02:59.471Z,13.13
2018-10-16T00:05:27.627Z,12.87
2018-10-16T00:07:55.815Z,11.87
2018-10-16T00:10:29.543Z,12.80
2018-10-16T00:12:57.692Z,12.60
2018-10-16T00:15:25.967Z,13.70
2018-10-16T00:17:54.204Z,13.20
2018-10-16T00:20:22.185Z,13.20
2018-10-16T00:22:50.162Z,12.70
2018-10-16T00:25:18.234Z,12.30
2018-10-16T00:27:46.204Z,12.20
2018-10-16T00:30:14.376Z,12.30
2018-10-16T00:32:42.478Z,14.77
2018-10-16T00:35:11.468Z,12.70
2018-10-16T00:37:39.760Z,12.90
2018-10-16T00:40:09.774Z,13.07
2018-10-16T00:42:37.747Z,12.63
2018-10-16T00:45:05.802Z,12.50
2018-10-16T00:47:33.847Z,12.10
2018-10-16T00:50:01.787Z,12.27
2018-10-16T00:52:29.817Z,12.40
2018-10-16T00:54:57.756Z,12.93
2018-10-16T00:57:25.772Z,12.97
2018-10-16T00:59:53.787Z,13.03
2018-10-16T01:02:21.751Z,12.23
2018-10-16T01:04:49.731Z,12.77
2018-10-16T01:07:17.714Z,12.67
2018-10-16T01:09:45.702Z,12.53
2018-10-16T01:12:13.677Z,13.20
2018-10-16T01:14:41.606Z,11.93
2018-10-16T01:17:09.597Z,12.80
2018-10-16T01:19:37.556Z,13.90
2018-10-16T01:22:05.747Z,13.37
2018-10-16T01:24:34.014Z,13.30
2018-10-16T01:27:02.232Z,12.90
2018-10-16T01:29:30.462Z,13.90
2018-10-16T01:31:58.670Z,13.27
2018-10-16T01:34:26.972Z,13.60
2018-10-16T01:36:55.162Z,14.43
2018-10-16T01:39:23.364Z,13.00
2018-10-16T01:41:51.622Z,14.53
2018-10-16T01:44:19.849Z,13.77
2018-10-16T01:46:48.130Z,13.53
2018-10-16T01:49:16.342Z,12.60
2018-10-16T01:51:44.533Z,12.50
2018-10-16T01:54:12.759Z,13.87
2018-10-16T01:56:40.906Z,12.60
2018-10-16T01:59:09.151Z,12.83
2018-10-16T02:01:37.342Z,12.60
2018-10-16T02:04:05.570Z,12.67
2018-10-16T02:06:33.822Z,12.47
2018-10-16T02:09:02.010Z,13.00
2018-10-16T02:11:30.232Z,13.83
2018-10-16T02:13:58.384Z,13.43
2018-10-16T02:16:26.674Z,12.80
2018-10-16T02:18:54.936Z,13.53
2018-10-16T02:21:23.115Z,12.87
2018-10-16T02:23:51.320Z,14.00
2018-10-16T02:26:19.556Z,13.20
2018-10-16T02:28:47.754Z,13.10
2018-10-16T02:31:15.948Z,13.30
2018-10-16T02:33:44.200Z,13.57
2018-10-16T02:36:12.396Z,13.03
2018-10-16T02:38:40.542Z,12.83
2018-10-16T02:41:08.732Z,13.80
2018-10-16T02:43:36.914Z,12.30
2018-10-16T02:46:05.906Z,12.43
2018-10-16T02:48:34.148Z,12.37
2018-10-16T02:51:02.412Z,12.27
2018-10-16T02:53:30.587Z,12.20
2018-10-16T02:55:58.760Z,13.03
2018-10-16T02:58:34.064Z,13.80
2018-10-16T03:01:02.274Z,13.10
2018-10-16T03:03:36.598Z,13.03
2018-10-16T03:06:04.868Z,12.97
2018-10-16T03:08:33.068Z,13.37
2018-10-16T03:11:01.511Z,13.13
2018-10-16T03:13:30.006Z,13.57
2018-10-16T03:15:58.242Z,13.87
2018-10-16T03:18:26.422Z,12.17
2018-10-16T03:20:54.627Z,13.03
2018-10-16T03:23:22.801Z,12.20
2018-10-16T03:25:50.989Z,14.33
2018-10-16T03:28:19.189Z,12.40
2018-10-16T03:30:47.421Z,12.70
2018-10-16T03:33:15.649Z,12.70
2018-10-16T03:35:43.852Z,13.50
2018-10-16T03:38:12.061Z,13.93
2018-10-16T03:40:40.268Z,14.80
2018-10-16T03:43:08.455Z,13.63
2018-10-16T03:45:36.646Z,15.43
2018-10-16T03:48:05.138Z,14.70
2018-10-16T03:50:33.362Z,14.80
2018-10-16T03:53:01.523Z,14.47
2018-10-16T03:55:29.692Z,12.80
2018-10-16T03:57:57.892Z,12.97
2018-10-16T04:00:26.103Z,14.87
2018-10-16T04:02:54.255Z,13.67
2018-10-16T04:05:22.446Z,13.23
2018-10-16T04:07:50.590Z,13.87
2018-10-16T04:10:18.768Z,12.40
2018-10-16T04:12:47.049Z,13.23
2018-10-16T04:15:15.197Z,13.23
2018-10-16T04:17:43.420Z,14.23
2018-10-16T04:20:11.585Z,14.10
2018-10-16T04:22:39.858Z,13.10
2018-10-16T04:25:09.874Z,13.20
2018-10-16T04:27:38.061Z,13.40
2018-10-16T04:30:06.876Z,13.57
2018-10-16T04:32:35.032Z,13.67
2018-10-16T04:35:06.752Z,13.77
2018-10-16T04:37:34.896Z,13.67
2018-10-16T04:40:03.140Z,14.00
2018-10-16T04:42:31.324Z,13.33
2018-10-16T04:44:59.592Z,13.63
2018-10-16T04:47:27.842Z,12.80
2018-10-16T04:49:56.035Z,12.10
2018-10-16T04:52:24.310Z,13.30
2018-10-16T04:54:52.528Z,12.50
2018-10-16T04:57:20.708Z,13.07
2018-10-16T04:59:48.912Z,13.13
2018-10-16T05:02:17.147Z,13.77
2018-10-16T05:04:45.409Z,13.60
2018-10-16T05:07:13.722Z,13.17
2018-10-16T05:09:41.915Z,13.40
2018-10-16T05:12:10.154Z,12.37
2018-10-16T05:14:38.350Z,12.27
2018-10-16T05:17:06.642Z,13.83
2018-10-16T05:19:34.882Z,13.57
2018-10-16T05:22:03.172Z,14.03
2018-10-16T05:24:31.354Z,13.87
2018-10-16T05:26:59.550Z,15.13
2018-10-16T05:29:27.839Z,14.73
2018-10-16T05:31:56.074Z,14.43
2018-10-16T05:34:24.292Z,14.10
2018-10-16T05:36:52.631Z,16.00
2018-10-16T05:39:20.969Z,17.33
2018-10-16T05:41:49.165Z,14.57
2018-10-16T05:44:17.904Z,15.40
2018-10-16T05:46:46.186Z,15.50
2018-10-16T05:49:14.496Z,14.60
2018-10-16T05:51:42.705Z,13.63
2018-10-16T05:54:10.980Z,15.03
2018-10-16T05:56:39.156Z,14.13
2018-10-16T05:59:07.319Z,14.10
2018-10-16T06:01:36.427Z,14.90
2018-10-16T06:04:05.381Z,15.30
2018-10-16T06:06:33.624Z,14.10
2018-10-16T06:09:01.967Z,14.80
2018-10-16T06:11:30.891Z,14.80
2018-10-16T06:15:28.634Z,14.70
2018-10-16T06:17:56.865Z,14.67
2018-10-16T06:20:25.118Z,14.90
2018-10-16T06:22:53.330Z,14.10
2018-10-16T06:25:21.535Z,15.60
2018-10-16T06:27:49.782Z,13.67
2018-10-16T06:30:17.980Z,13.80
2018-10-16T06:32:46.187Z,14.57
2018-10-16T06:35:14.413Z,14.57
2018-10-16T06:37:42.748Z,14.73
2018-10-16T06:40:11.293Z,13.40
2018-10-16T06:42:40.018Z,13.20
2018-10-16T06:45:09.504Z,13.37
2018-10-16T06:47:37.788Z,14.20
2018-10-16T06:50:07.638Z,14.03
2018-10-16T06:52:35.766Z,14.13
2018-10-16T06:55:04.025Z,14.70
2018-10-16T06:57:32.195Z,16.07
2018-10-16T07:00:00.429Z,14.03
2018-10-16T07:02:28.815Z,14.90
2018-10-16T07:04:57.069Z,16.40
2018-10-16T07:07:25.319Z,14.57
2018-10-16T07:09:53.471Z,14.80
2018-10-16T07:12:21.625Z,15.47
2018-10-16T07:14:49.861Z,14.87
2018-10-16T07:17:18.099Z,13.30
2018-10-16T07:19:46.228Z,16.00
2018-10-16T07:22:14.452Z,15.93
2018-10-16T07:24:42.625Z,17.07
2018-10-16T07:27:10.856Z,15.93
2018-10-16T07:29:39.121Z,15.03
2018-10-16T07:32:07.431Z,16.50
2018-10-16T07:34:42.275Z,16.83
2018-10-16T07:37:10.513Z,15.07
2018-10-16T07:39:38.719Z,15.20
2018-10-16T07:42:06.959Z,15.70
2018-10-16T07:44:35.168Z,16.63
2018-10-16T07:47:09.957Z,15.00
2018-10-16T07:49:38.146Z,16.50
2018-10-16T07:52:06.488Z,17.10
2018-10-16T07:54:34.685Z,16.23
2018-10-16T07:57:02.929Z,16.70
2018-10-16T07:59:32.151Z,17.30
2018-10-16T08:02:00.297Z,16.10
2018-10-16T08:04:28.475Z,15.60
2018-10-16T08:06:56.788Z,15.73
2018-10-16T08:09:25.016Z,16.20
2018-10-16T08:11:53.193Z,14.30
2018-10-16T08:14:21.823Z,14.80
2018-10-16T08:16:50.732Z,15.50
2018-10-16T08:19:18.998Z,16.27
2018-10-16T08:21:47.888Z,15.10
2018-10-16T08:24:16.042Z,14.20
2018-10-16T08:26:44.388Z,15.50
2018-10-16T08:29:12.576Z,13.77
2018-10-16T08:31:40.742Z,14.67
2018-10-16T08:34:09.230Z,14.60
2018-10-16T08:36:37.445Z,15.03
2018-10-16T08:39:18.844Z,15.37
2018-10-16T08:42:04.357Z,14.23
2018-10-16T08:45:19.233Z,15.00
2018-10-16T08:49:01.386Z,16.13
2018-10-16T08:51:35.092Z,14.70
2018-10-16T08:54:10.144Z,16.10
2018-10-16T08:56:38.404Z,14.00
2018-10-16T08:59:06.550Z,14.40
2018-10-16T09:01:34.858Z,13.60
2018-10-16T09:04:03.678Z,13.80
2018-10-16T09:06:32.424Z,14.50
2018-10-16T09:09:00.944Z,14.07
2018-10-16T09:11:29.134Z,14.67
2018-10-16T09:13:57.416Z,12.73
2018-10-16T09:16:25.610Z,13.60
2018-10-16T09:18:53.882Z,13.50
2018-10-16T09:21:22.168Z,13.70
2018-10-16T09:23:50.444Z,14.27
2018-10-16T09:26:18.783Z,13.00
2018-10-16T09:28:46.980Z,14.33
2018-10-16T09:31:15.226Z,13.27
2018-10-16T09:33:43.436Z,13.83
2018-10-16T09:36:11.793Z,13.57
2018-10-16T09:38:40.076Z,12.43
2018-10-16T09:41:08.528Z,14.03
2018-10-16T09:43:36.812Z,14.33
2018-10-16T09:46:05.257Z,13.20
2018-10-16T09:48:33.460Z,13.83
2018-10-16T09:51:01.732Z,12.50
2018-10-16T09:53:29.894Z,12.80
2018-10-16T09:55:58.221Z,12.23
2018-10-16T09:58:26.460Z,13.10
2018-10-16T10:01:00.100Z,12.83
2018-10-16T10:03:28.280Z,11.73
2018-10-16T10:05:56.484Z,12.90
2018-10-16T10:08:24.733Z,13.40
2018-10-16T10:10:52.982Z,12.07
2018-10-16T10:13:21.535Z,12.77
2018-10-16T10:15:49.758Z,12.53
2018-10-16T10:18:18.035Z,11.83
2018-10-16T10:20:46.242Z,12.73
2018-10-16T10:23:14.553Z,11.73
2018-10-16T10:25:42.701Z,11.97
2018-10-16T10:28:10.978Z,11.90
2018-10-16T10:30:39.207Z,11.40
2018-10-16T10:33:07.498Z,10.70
2018-10-16T10:35:35.898Z,11.70
2018-10-16T10:38:04.034Z,11.80
2018-10-16T10:40:32.285Z,11.17
2018-10-16T10:43:00.548Z,11.30
2018-10-16T10:45:28.770Z,10.90
2018-10-16T10:47:56.964Z,10.63
2018-10-16T10:50:25.510Z,10.10
2018-10-16T10:52:53.401Z,11.90
2018-10-16T10:55:21.635Z,10.60
2018-10-16T10:57:49.823Z,11.47
2018-10-16T11:00:18.026Z,12.20
2018-10-16T11:02:47.560Z,10.77
2018-10-16T11:05:15.777Z,10.80
2018-10-16T11:07:44.023Z,10.70
2018-10-16T11:10:13.530Z,10.63
2018-10-16T11:12:42.811Z,11.10
2018-10-16T11:15:11.072Z,10.50
2018-10-16T11:17:39.546Z,10.53
2018-10-16T11:20:09.345Z,10.70
2018-10-16T11:22:37.569Z,11.00
2018-10-16T11:25:07.085Z,10.83
2018-10-16T11:27:35.339Z,11.47
2018-10-16T11:30:03.567Z,10.70
2018-10-16T11:32:31.747Z,10.90
2018-10-16T11:34:59.974Z,10.93
2018-10-16T11:37:28.211Z,10.30
2018-10-16T11:39:56.485Z,10.60
2018-10-16T11:42:24.665Z,10.60
2018-10-16T11:44:52.963Z,10.83
2018-10-16T11:47:21.166Z,10.50
2018-10-16T11:49:49.432Z,10.27
2018-10-16T11:52:17.714Z,10.67
2018-10-16T11:54:45.924Z,11.30
2018-10-16T11:57:14.067Z,11.20
2018-10-16T11:59:42.267Z,10.10
2018-10-16T12:02:10.503Z,10.40
2018-10-16T12:04:41.082Z,10.63
2018-10-16T12:07:09.340Z,9.90
2018-10-16T12:09:37.618Z,9.50
2018-10-16T12:12:05.824Z,10.03
2018-10-16T12:14:34.007Z,10.30
2018-10-16T12:17:07.180Z,10.60
2018-10-16T12:19:38.529Z,9.50
2018-10-16T12:22:06.750Z,9.43
2018-10-16T12:24:34.968Z,10.80
2018-10-16T12:27:03.202Z,9.40
2018-10-16T12:29:31.389Z,9.57
2018-10-16T12:32:01.054Z,10.23
2018-10-16T12:34:29.280Z,8.83
2018-10-16T12:36:57.517Z,9.10
2018-10-16T12:39:25.827Z,11.40
2018-10-16T12:41:54.071Z,10.30
2018-10-16T12:44:22.318Z,11.43
2018-10-16T12:46:50.535Z,10.87
2018-10-16T12:49:18.862Z,10.07
2018-10-16T12:51:47.142Z,11.20
2018-10-16T12:54:15.379Z,11.30
2018-10-16T12:56:43.621Z,11.20
2018-10-16T12:59:11.901Z,11.10
2018-10-16T13:01:40.064Z,11.10
2018-10-16T13:04:08.280Z,12.00
2018-10-16T13:06:36.497Z,11.40
2018-10-16T13:09:07.636Z,11.20
2018-10-16T13:11:35.809Z,11.63
2018-10-16T13:14:04.086Z,11.40
2018-10-16T13:16:32.298Z,11.03
2018-10-16T13:19:00.473Z,11.87
2018-10-16T13:21:28.716Z,10.93
2018-10-16T13:23:56.954Z,11.97
2018-10-16T13:26:31.857Z,11.30
2018-10-16T13:29:00.208Z,11.27
2018-10-16T13:31:29.100Z,10.60
2018-10-16T13:33:57.337Z,12.00
2018-10-16T13:36:25.518Z,11.50
2018-10-16T13:38:53.715Z,11.80
2018-10-16T13:41:22.102Z,12.70
2018-10-16T13:43:50.344Z,11.50
2018-10-16T13:46:18.679Z,11.60
2018-10-16T13:48:46.892Z,12.67
2018-10-16T13:51:15.171Z,11.47
2018-10-16T13:53:43.546Z,12.03
2018-10-16T13:56:11.995Z,11.10
2018-10-16T13:58:40.207Z,11.27
2018-10-16T14:01:08.396Z,12.10
2018-10-16T14:03:36.714Z,13.03
2018-10-16T14:06:04.982Z,14.20
2018-10-16T14:08:33.227Z,12.20
2018-10-16T14:11:01.440Z,12.60
2018-10-16T14:13:29.721Z,10.80
2018-10-16T14:15:58.078Z,12.10
2018-10-16T14:18:26.320Z,11.67
2018-10-16T14:20:54.501Z,12.20
2018-10-16T14:23:22.815Z,11.23
2018-10-16T14:25:51.036Z,11.63
2018-10-16T14:28:19.498Z,10.73
2018-10-16T14:30:47.745Z,12.40
2018-10-16T14:33:15.994Z,12.20
2018-10-16T14:35:44.499Z,12.17
2018-10-16T14:38:12.916Z,13.70
2018-10-16T14:40:41.177Z,12.80
2018-10-16T14:43:09.536Z,11.33
2018-10-16T14:45:37.759Z,12.10
2018-10-16T14:48:06.056Z,13.03
2018-10-16T14:50:34.239Z,11.90
2018-10-16T14:53:02.470Z,10.67
2018-10-16T14:55:30.769Z,11.40
2018-10-16T14:57:59.045Z,11.13
2018-10-16T15:00:33.636Z,12.07
2018-10-16T15:03:01.987Z,12.63
2018-10-16T15:05:30.225Z,11.77
2018-10-16T15:07:58.490Z,12.37
2018-10-16T15:10:26.712Z,12.17
2018-10-16T15:12:54.883Z,12.03
2018-10-16T15:15:23.113Z,10.87
2018-10-16T15:17:51.365Z,11.00
2018-10-16T15:20:19.573Z,11.90
2018-10-16T15:22:47.779Z,11.57
2018-10-16T15:25:15.949Z,12.07
2018-10-16T15:27:44.155Z,11.30
2018-10-16T15:30:12.352Z,12.10
2018-10-16T15:32:40.588Z,11.80
2018-10-16T15:35:10.141Z,13.03
2018-10-16T15:37:38.737Z,11.70
2018-10-16T15:40:08.283Z,11.40
2018-10-16T15:42:36.541Z,12.17
2018-10-16T15:45:05.994Z,12.57
2018-10-16T15:47:34.210Z,11.77
2018-10-16T15:50:02.820Z,12.10
2018-10-16T15:52:31.063Z,12.50
2018-10-16T15:54:59.292Z,12.43
2018-10-16T15:57:27.503Z,12.40
2018-10-16T15:59:55.770Z,12.03
2018-10-16T16:02:23.957Z,11.73
2018-10-16T16:04:52.161Z,10.97
2018-10-16T16:07:20.388Z,12.80
2018-10-16T16:09:48.637Z,12.07
2018-10-16T16:12:16.853Z,12.10
2018-10-16T16:14:45.066Z,12.60
2018-10-16T16:17:13.281Z,12.27
2018-10-16T16:19:41.503Z,12.50
2018-10-16T16:22:09.859Z,13.20
2018-10-16T16:24:38.027Z,12.17
2018-10-16T16:27:06.167Z,12.13
2018-10-16T16:29:34.449Z,12.47
2018-10-16T16:32:02.676Z,13.10
2018-10-16T16:34:30.960Z,12.70
2018-10-16T16:36:59.137Z,12.37
2018-10-16T16:39:27.434Z,13.97
2018-10-16T16:41:55.570Z,14.77
2018-10-16T16:44:24.956Z,16.10
2018-10-16T16:46:53.216Z,17.80
2018-10-16T16:49:21.561Z,18.80
2018-10-16T16:51:49.921Z,17.63
2018-10-16T16:54:18.357Z,16.70
2018-10-16T16:56:46.777Z,16.30
2018-10-16T16:59:14.999Z,14.60
2018-10-16T17:01:43.253Z,14.17
2018-10-16T17:04:11.615Z,14.60
2018-10-16T17:06:46.430Z,14.70
2018-10-16T17:09:14.625Z,14.30
2018-10-16T17:11:42.841Z,15.07
2018-10-16T17:14:11.092Z,14.63
2018-10-16T17:16:39.457Z,14.17
2018-10-16T17:19:08.048Z,14.30
2018-10-16T17:21:36.402Z,14.70
2018-10-16T17:24:04.886Z,15.50
2018-10-16T17:26:33.347Z,16.27
2018-10-16T17:29:01.843Z,15.60
2018-10-16T17:31:30.110Z,16.37
2018-10-16T17:33:58.410Z,14.50
2018-10-16T17:36:27.612Z,15.20
2018-10-16T17:38:55.984Z,16.90
2018-10-16T17:41:24.176Z,17.47
2018-10-16T17:43:52.385Z,15.97
2018-10-16T17:46:20.644Z,15.07
2018-10-16T17:48:48.977Z,15.70
2018-10-16T17:51:17.240Z,15.87
2018-10-16T17:53:45.518Z,16.83
2018-10-16T17:56:13.744Z,15.73
2018-10-16T17:58:42.676Z,16.40
2018-10-16T18:01:12.391Z,17.63
2018-10-16T18:03:40.642Z,20.83
2018-10-16T18:06:08.823Z,21.70
2018-10-16T18:08:39.988Z,23.47
2018-10-16T18:11:08.476Z,17.97
2018-10-16T18:13:36.944Z,17.90
2018-10-16T18:16:05.940Z,17.97
2018-10-16T18:18:34.838Z,17.20
2018-10-16T18:21:03.428Z,15.90
2018-10-16T18:23:31.721Z,16.63
2018-10-16T18:26:00.780Z,16.90
2018-10-16T18:28:29.229Z,16.13
2018-10-16T18:30:57.488Z,17.67
2018-10-16T18:33:25.911Z,16.07
2018-10-16T18:35:54.646Z,17.23
2018-10-16T18:38:23.471Z,16.77
2018-10-16T18:40:52.096Z,16.40
2018-10-16T18:43:20.972Z,16.10
2018-10-16T18:45:49.549Z,16.87
2018-10-16T18:48:18.174Z,17.90
2018-10-16T18:50:47.864Z,19.47
2018-10-16T18:53:16.336Z,17.57
2018-10-16T18:55:51.158Z,17.67
2018-10-16T18:58:20.006Z,17.80
2018-10-16T19:00:48.498Z,16.47
2018-10-16T19:03:16.875Z,18.40
2018-10-16T19:05:45.190Z,17.77
2018-10-16T19:08:16.946Z,18.30
2018-10-16T19:10:45.204Z,18.13
2018-10-16T19:13:14.010Z,18.13
2018-10-16T19:15:42.315Z,19.10
2018-10-16T19:18:10.755Z,17.67
2018-10-16T19:20:39.095Z,18.07
2018-10-16T19:23:07.757Z,17.10
2018-10-16T19:25:36.044Z,18.10
2018-10-16T19:28:04.484Z,18.63
2018-10-16T19:30:32.845Z,17.50
2018-10-16T19:33:01.182Z,19.93
2018-10-16T19:35:29.547Z,17.60
2018-10-16T19:37:57.970Z,19.23
2018-10-16T19:40:26.198Z,17.70
2018-10-16T19:42:54.470Z,17.60
2018-10-16T19:45:22.828Z,20.10
2018-10-16T19:47:51.172Z,17.50
2018-10-16T19:50:19.679Z,19.57
2018-10-16T19:52:48.035Z,21.43
2018-10-16T19:55:16.372Z,20.53
2018-10-16T19:57:44.677Z,19.97
2018-10-16T20:00:12.939Z,20.53
2018-10-16T20:02:41.249Z,21.30
2018-10-16T20:05:09.737Z,21.47
2018-10-16T20:07:38.571Z,22.00
2018-10-16T20:10:07.879Z,22.73
2018-10-16T20:12:36.421Z,24.67
2018-10-16T20:15:06.228Z,21.23
2018-10-16T20:17:34.547Z,22.80
2018-10-16T20:20:02.782Z,21.87
2018-10-16T20:22:31.012Z,21.40
2018-10-16T20:24:59.245Z,22.23
2018-10-16T20:27:27.477Z,23.93
2018-10-16T20:29:55.765Z,24.27
2018-10-16T20:32:24.027Z,21.40
2018-10-16T20:34:52.313Z,22.27
2018-10-16T20:37:20.551Z,21.30
2018-10-16T20:39:48.795Z,21.43
2018-10-16T20:42:17.093Z,21.70
2018-10-16T20:44:45.265Z,22.40
2018-10-16T20:47:13.477Z,19.97
2018-10-16T20:49:41.739Z,22.93
2018-10-16T20:52:09.947Z,22.90
2018-10-16T20:54:38.228Z,21.70
2018-10-16T20:57:06.459Z,20.57
2018-10-16T20:59:34.651Z,20.87
2018-10-16T21:02:02.893Z,22.07
2018-10-16T21:04:31.144Z,26.80
2018-10-16T21:06:59.645Z,23.10
2018-10-16T21:09:27.762Z,23.70
2018-10-16T21:11:55.962Z,24.60
2018-10-16T21:14:24.179Z,24.50
2018-10-16T21:16:52.454Z,24.53
2018-10-16T21:19:20.737Z,27.40
2018-10-16T21:21:48.914Z,29.83
2018-10-16T21:24:17.116Z,25.43
2018-10-16T21:26:49.803Z,28.10
2018-10-16T21:29:17.939Z,23.77
2018-10-16T21:31:46.188Z,24.50
2018-10-16T21:34:14.440Z,22.20
2018-10-16T21:36:42.668Z,20.30
2018-10-16T21:39:10.885Z,21.57
2018-10-16T21:41:39.224Z,21.50
2018-10-16T21:44:07.464Z,20.17
2018-10-16T21:46:35.672Z,20.83
2018-10-16T21:49:03.969Z,21.00
2018-10-16T21:51:32.134Z,22.17
2018-10-16T21:54:00.352Z,19.73
2018-10-16T21:56:28.557Z,21.27
2018-10-16T21:58:56.848Z,19.90
2018-10-16T22:01:30.429Z,19.93
2018-10-16T22:03:58.662Z,20.43
2018-10-16T22:06:26.850Z,19.03
2018-10-16T22:08:55.101Z,20.10
2018-10-16T22:11:24.614Z,18.90
2018-10-16T22:13:52.826Z,20.03
2018-10-16T22:16:21.051Z,18.90
2018-10-16T22:18:49.257Z,18.43
2018-10-16T22:21:17.604Z,19.93
2018-10-16T22:23:45.803Z,19.60
2018-10-16T22:26:13.951Z,19.30
2018-10-16T22:28:42.160Z,20.17
2018-10-16T22:31:10.477Z,21.10
2018-10-16T22:33:38.673Z,19.60
2018-10-16T22:36:06.919Z,20.57
2018-10-16T22:38:35.165Z,21.30
2018-10-16T22:41:03.924Z,20.57
2018-10-16T22:43:32.454Z,20.83
2018-10-16T22:46:03.439Z,19.73
2018-10-16T22:48:32.539Z,21.10
2018-10-16T22:51:01.030Z,21.30
2018-10-16T22:53:29.940Z,22.77
2018-10-16T22:55:59.890Z,21.40
2018-10-16T22:58:28.397Z,20.93
2018-10-16T23:00:56.862Z,20.43
2018-10-16T23:03:25.092Z,21.97
2018-10-16T23:05:54.689Z,19.80
2018-10-16T23:08:22.942Z,19.53
2018-10-16T23:10:51.281Z,20.13
2018-10-16T23:13:19.567Z,21.30
2018-10-16T23:15:47.844Z,21.70
2018-10-16T23:18:18.449Z,19.23
2018-10-16T23:20:47.894Z,18.87
2018-10-16T23:23:16.361Z,19.57
2018-10-16T23:25:47.796Z,20.87
2018-10-16T23:28:15.980Z,20.03
2018-10-16T23:30:44.249Z,22.27
2018-10-16T23:33:12.436Z,19.20
2018-10-16T23:35:40.629Z,19.30
2018-10-16T23:38:08.799Z,20.70
2018-10-16T23:40:37.079Z,20.23
2018-10-16T23:43:05.374Z,21.00
2018-10-16T23:45:38.686Z,20.33
2018-10-16T23:48:07.009Z,21.23
2018-10-16T23:50:35.289Z,20.93
2018-10-16T23:53:03.526Z,22.13
2018-10-16T23:55:31.701Z,21.90
2018-10-16T23:57:59.857Z,21.67
